createdAt,value
2018-02-04T10:22:50.233Z,70.70
2018-02-04T10:25:20.714Z,71.10
2018-02-04T10:27:49.074Z,70.90
2018-02-04T10:30:17.429Z,71.00
2018-02-04T10:32:45.019Z,71.00
2018-02-04T10:35:12.650Z,70.60
2018-02-04T10:37:41.269Z,69.90
2018-02-04T10:40:11.846Z,69.30
2018-02-04T10:42:39.484Z,68.40
2018-02-04T10:45:07.115Z,67.90
2018-02-04T10:47:35.481Z,65.00
2018-02-04T10:50:03.632Z,65.00
2018-02-04T10:52:31.422Z,64.40
2018-02-04T10:54:59.031Z,64.80
2018-02-04T10:57:26.616Z,64.20
2018-02-04T10:59:54.246Z,62.80
2018-02-04T11:02:21.911Z,62.80
2018-02-04T11:04:49.507Z,62.30
2018-02-04T12:01:05.182Z,58.40
2018-02-04T12:07:48.542Z,45.00
2018-02-04T12:10:16.042Z,46.00
2018-02-04T12:12:43.544Z,53.60
2018-02-04T12:15:11.038Z,49.70
2018-02-04T12:17:38.610Z,51.50
2018-02-04T12:20:06.122Z,51.80
2018-02-04T12:22:33.619Z,52.00
2018-02-04T12:25:01.890Z,55.10
2018-02-04T12:27:29.372Z,55.00
2018-02-04T12:29:56.870Z,54.80
2018-02-04T12:32:24.392Z,55.00
2018-02-04T12:34:52.702Z,53.50
2018-02-04T12:37:20.218Z,53.50
2018-02-04T12:39:47.768Z,57.20
2018-02-04T12:42:15.239Z,54.60
2018-02-04T12:44:42.726Z,54.40
2018-02-04T12:47:10.217Z,55.20
2018-02-04T12:49:37.735Z,54.20
2018-02-04T12:52:05.248Z,55.90
2018-02-04T12:54:32.751Z,56.20
2018-02-04T13:00:10.739Z,55.70
2018-02-04T13:02:38.222Z,57.40
2018-02-04T13:12:36.264Z,55.20
2018-02-04T13:15:03.761Z,51.70
2018-02-04T13:17:31.250Z,53.90
2018-02-04T13:19:59.543Z,53.30
2018-02-04T13:22:27.796Z,53.70
2018-02-04T13:24:55.284Z,53.60
2018-02-04T13:27:22.810Z,53.40
2018-02-04T13:29:50.301Z,52.70
2018-02-04T13:32:18.608Z,52.00
2018-02-04T13:34:46.125Z,51.90
2018-02-04T13:37:13.611Z,50.10
2018-02-04T13:39:41.105Z,50.30
2018-02-04T13:42:08.609Z,50.80
2018-02-04T13:44:36.109Z,52.60
2018-02-04T13:47:03.587Z,52.40
2018-02-04T13:49:31.083Z,53.50
2018-02-04T13:51:58.587Z,54.70
2018-02-04T13:54:26.089Z,54.80
2018-02-04T13:56:53.602Z,55.20
2018-02-04T13:59:21.102Z,54.20
2018-02-04T14:01:48.599Z,53.80
2018-02-04T14:04:16.095Z,54.20
2018-02-04T14:06:43.606Z,54.00
2018-02-04T14:09:11.118Z,54.40
2018-02-04T14:11:38.662Z,55.00
2018-02-04T14:14:06.886Z,54.90
2018-02-04T14:19:19.013Z,53.80
2018-02-04T14:21:46.498Z,53.70
2018-02-04T14:24:13.989Z,52.40
2018-02-04T14:35:57.646Z,38.00
2018-02-04T14:41:06.091Z,39.60
2018-02-04T14:45:24.728Z,43.10
2018-02-04T14:47:52.208Z,46.00
2018-02-04T14:50:19.709Z,46.30
2018-02-04T14:52:47.226Z,47.40
2018-02-04T14:55:14.710Z,47.20
2018-02-04T14:57:42.191Z,48.30
2018-02-04T15:00:09.700Z,48.40
2018-02-04T15:02:37.191Z,49.60
2018-02-04T15:05:04.676Z,50.00
2018-02-04T15:07:32.183Z,49.60
2018-02-04T15:09:59.726Z,50.50
2018-02-04T15:12:27.242Z,50.00
2018-02-04T15:14:54.729Z,49.80
2018-02-04T15:17:22.245Z,49.70
2018-02-04T15:19:49.742Z,50.60
2018-02-04T15:22:17.488Z,51.10
2018-02-04T15:24:45.022Z,50.80
2018-02-04T15:27:12.535Z,50.70
2018-02-04T15:29:40.028Z,50.10
2018-02-04T15:32:07.543Z,50.00
2018-02-04T15:34:35.082Z,50.20
2018-02-04T15:37:02.574Z,50.50
2018-02-04T15:39:30.068Z,50.10
2018-02-04T15:41:58.439Z,50.80
2018-02-04T15:44:25.926Z,50.80
2018-02-04T15:46:53.761Z,51.20
2018-02-04T15:49:21.330Z,51.80
2018-02-04T15:51:48.883Z,52.20
2018-02-04T15:54:16.437Z,52.30
2018-02-04T15:56:43.983Z,51.70
2018-02-04T15:59:11.473Z,51.30
2018-02-04T16:01:40.590Z,51.90
2018-02-04T16:04:08.093Z,51.90
2018-02-04T16:06:35.613Z,52.10
2018-02-04T16:09:03.235Z,52.40
2018-02-04T16:11:30.715Z,51.40
2018-02-04T16:13:58.231Z,52.10
2018-02-04T16:16:25.715Z,52.10
2018-02-04T16:18:53.248Z,51.50
2018-02-04T16:21:20.755Z,51.60
2018-02-04T16:23:49.027Z,51.30
2018-02-04T16:26:16.543Z,51.30
2018-02-04T16:28:44.081Z,51.10
2018-02-04T16:31:11.615Z,51.10
2018-02-04T16:33:39.161Z,51.00
2018-02-04T16:36:06.655Z,52.10
2018-02-04T16:38:34.141Z,51.90
2018-02-04T16:41:01.657Z,51.60
2018-02-04T16:43:29.907Z,51.80
2018-02-04T16:45:57.412Z,51.80
2018-02-04T16:48:24.907Z,52.30
2018-02-04T16:50:52.395Z,52.70
2018-02-04T16:53:19.926Z,51.80
2018-02-04T16:55:47.402Z,52.30
2018-02-04T16:58:14.889Z,52.50
2018-02-04T17:00:42.399Z,52.10
2018-02-04T17:03:09.891Z,52.30
2018-02-04T17:05:37.388Z,51.80
2018-02-04T17:08:04.890Z,52.10
2018-02-04T17:10:32.443Z,52.50
2018-02-04T17:12:59.957Z,52.70
2018-02-04T17:15:27.452Z,52.60
2018-02-04T17:17:54.968Z,52.70
2018-02-04T17:20:22.503Z,52.80
2018-02-04T17:22:49.994Z,53.50
2018-02-04T17:25:18.243Z,53.20
2018-02-04T17:27:45.772Z,53.20
2018-02-04T17:30:13.659Z,69.60
2018-02-04T17:32:41.156Z,54.00
2018-02-04T17:40:28.514Z,67.60
2018-02-04T17:42:56.064Z,67.60
2018-02-04T17:45:23.556Z,42.20
2018-02-04T17:50:27.468Z,53.60
2018-02-04T17:55:36.110Z,61.30
2018-02-04T17:58:04.388Z,64.60
2018-02-04T18:00:31.866Z,64.60
2018-02-04T18:02:59.374Z,65.60
2018-02-04T18:05:26.867Z,66.10
2018-02-04T18:07:55.278Z,67.80
2018-02-04T18:10:22.785Z,67.80
2018-02-04T18:12:50.279Z,68.60
2018-02-04T18:15:17.828Z,68.40
2018-02-04T18:17:45.335Z,69.10
2018-02-04T18:20:12.812Z,69.30
2018-02-04T18:22:40.317Z,70.00
2018-02-04T18:25:07.804Z,69.20
2018-02-04T18:27:35.319Z,69.70
2018-02-04T18:30:03.037Z,70.60
2018-02-04T18:32:30.639Z,70.50
2018-02-04T18:34:58.148Z,70.70
2018-02-04T18:37:25.727Z,70.00
2018-02-04T18:39:53.235Z,70.50
2018-02-04T18:42:20.728Z,70.70
2018-02-04T18:44:48.246Z,71.00
2018-02-04T18:47:15.774Z,70.80
2018-02-04T18:49:43.281Z,71.40
2018-02-04T18:52:10.801Z,71.80
2018-02-04T18:54:38.304Z,71.80
2018-02-04T18:57:05.811Z,71.60
2018-02-04T18:59:33.339Z,72.20
2018-02-04T19:02:00.828Z,72.40
2018-02-04T19:04:28.327Z,71.20
2018-02-04T19:06:56.619Z,71.40
2018-02-04T19:09:24.224Z,71.30
2018-02-04T19:11:51.805Z,70.80
2018-02-04T19:14:19.351Z,71.30
2018-02-04T19:16:46.861Z,72.10
2018-02-04T19:21:49.012Z,71.80
2018-02-04T19:24:16.511Z,71.70
2018-02-04T19:26:44.038Z,75.50
2018-02-04T19:29:11.588Z,71.20
2018-02-04T19:31:39.093Z,71.70
2018-02-04T19:34:06.608Z,72.30
2018-02-04T19:36:34.125Z,72.00
2018-02-04T19:39:01.636Z,71.80
2018-02-04T19:41:29.156Z,71.90
2018-02-04T19:43:56.646Z,72.30
2018-02-04T19:46:24.135Z,72.20
2018-02-04T19:48:51.665Z,72.80
2018-02-04T19:51:19.171Z,73.20
2018-02-04T19:53:46.659Z,73.00
2018-02-04T19:56:14.181Z,72.70
2018-02-04T19:58:42.502Z,73.40
2018-02-04T20:01:09.998Z,73.40
2018-02-04T20:03:37.520Z,73.30
2018-02-04T20:06:05.037Z,73.40
2018-02-04T20:08:32.593Z,73.60
2018-02-04T20:11:00.095Z,74.10
2018-02-04T20:13:27.621Z,74.10
2018-02-04T20:15:55.945Z,74.10
2018-02-04T20:18:23.454Z,74.10
2018-02-04T20:20:50.995Z,74.30
2018-02-04T20:23:18.506Z,74.00
2018-02-04T20:25:46.074Z,74.00
2018-02-04T20:28:13.665Z,73.60
2018-02-04T20:30:41.210Z,74.00
2018-02-04T20:33:23.508Z,74.10
2018-02-04T20:35:51.082Z,73.60
2018-02-04T20:38:19.406Z,74.30
2018-02-04T20:40:47.692Z,73.90
2018-02-04T20:43:15.203Z,74.00
2018-02-04T20:45:42.718Z,73.90
2018-02-04T20:48:10.210Z,73.90
2018-02-04T20:50:37.727Z,73.80
2018-02-04T20:53:05.254Z,73.80
2018-02-04T20:55:32.859Z,73.90
2018-02-04T20:58:01.146Z,73.70
2018-02-04T21:00:28.653Z,73.60
2018-02-04T21:02:56.194Z,73.90
2018-02-04T21:05:27.884Z,74.50
2018-02-04T21:07:55.437Z,74.40
2018-02-04T21:10:22.942Z,74.60
2018-02-04T21:12:50.539Z,74.70
2018-02-04T21:15:18.052Z,75.40
2018-02-04T21:17:45.572Z,75.20
2018-02-04T21:20:13.065Z,76.00
2018-02-04T21:22:40.594Z,76.80
2018-02-04T21:25:08.087Z,77.60
2018-02-04T21:27:35.615Z,77.60
2018-02-04T21:30:03.151Z,77.70
2018-02-04T21:32:31.445Z,78.30
2018-02-04T21:34:58.970Z,78.30
2018-02-04T21:37:27.137Z,78.30
2018-02-04T21:39:55.426Z,78.20
2018-02-04T21:42:22.926Z,78.10
2018-02-04T21:44:50.445Z,77.80
2018-02-04T21:47:17.969Z,77.90
2018-02-04T21:49:45.484Z,77.70
2018-02-04T21:52:12.979Z,77.90
2018-02-04T21:54:40.483Z,78.10
2018-02-04T21:57:07.991Z,77.60
2018-02-04T21:59:35.513Z,77.80
2018-02-04T22:02:03.025Z,78.00
2018-02-04T22:04:30.529Z,77.60
2018-02-04T22:06:58.019Z,77.80
2018-02-04T22:09:25.514Z,77.50
2018-02-04T22:11:53.025Z,77.50
2018-02-04T22:14:20.524Z,77.50
2018-02-04T22:16:48.776Z,77.00
2018-02-04T22:19:16.270Z,77.00
2018-02-04T22:21:44.574Z,77.00
2018-02-04T22:24:12.094Z,76.90
2018-02-04T22:26:40.356Z,76.10
2018-02-04T22:29:07.875Z,76.10
2018-02-04T22:31:35.417Z,76.10
2018-02-04T22:34:02.934Z,76.00
2018-02-04T22:36:30.430Z,76.20
2018-02-04T22:38:58.702Z,75.80
2018-02-04T22:41:26.987Z,75.70
2018-02-04T22:43:54.537Z,75.70
2018-02-04T22:46:22.813Z,75.10
2018-02-04T22:48:50.314Z,75.00
2018-02-04T22:51:17.807Z,74.70
2018-02-04T22:53:45.322Z,74.10
2018-02-04T22:56:12.828Z,73.00
2018-02-04T22:58:40.319Z,73.10
2018-02-04T23:01:07.883Z,73.20
2018-02-04T23:03:35.397Z,73.20
2018-02-04T23:06:02.902Z,73.30
2018-02-04T23:08:31.152Z,72.90
2018-02-04T23:11:00.208Z,73.20
2018-02-04T23:13:27.710Z,73.20
2018-02-04T23:15:55.201Z,72.60
2018-02-04T23:18:22.703Z,72.70
2018-02-04T23:20:50.220Z,72.70
2018-02-04T23:23:17.740Z,73.00
2018-02-04T23:25:45.257Z,72.00
2018-02-04T23:28:12.742Z,71.90
2018-02-04T23:30:40.294Z,71.70
2018-02-04T23:33:07.800Z,73.20
2018-02-04T23:35:36.070Z,72.40
2018-02-04T23:38:03.616Z,72.40
2018-02-04T23:40:31.107Z,72.30
2018-02-04T23:42:58.624Z,72.10
2018-02-04T23:45:26.158Z,71.60
2018-02-04T23:47:53.716Z,72.00
2018-02-04T23:50:21.214Z,71.90
2018-02-04T23:52:48.716Z,72.10
2018-02-04T23:55:16.205Z,71.80
2018-02-04T23:57:43.711Z,71.90
